Time;durP1;ratioP1;P1;durP2;ratioP2;P2;SDS_P1;SDS_P2;PMS_P1;PMS_P2;Temp;Humidity;BMP_temperature;BMP_pressure;BME280_temperature;BME280_humidity;BME280_pressure;Samples;Min_cycle;Max_cycle;Signal;HPM_P1;HPM_P2
2021/05/12 00:01:52;;;;;;;5.27;3.27;;;;;;;-144.99;nan;52289.13;5011402;28;20219;-60
2021/05/12 00:04:18;;;;;;;5.17;3.13;;;;;;;-144.99;nan;52350.25;5007900;28;20218;-62
2021/05/12 00:06:50;;;;;;;6.23;4.13;;;;;;;-144.99;nan;52285.03;5009499;28;20268;-61
2021/05/12 00:09:16;;;;;;;6.10;2.83;;;;;;;-144.99;nan;52285.03;5010083;28;20236;-61
2021/05/12 00:11:43;;;;;;;5.03;2.30;;;;;;;-144.99;nan;52321.72;5011489;28;20222;-63
2021/05/12 00:14:15;;;;;;;7.37;2.30;;;;;;;-144.99;nan;52285.03;5011823;28;20210;-62
2021/05/12 00:16:41;;;;;;;6.60;2.50;;;;;;;-144.99;nan;52272.81;5009848;28;20603;-62
2021/05/12 00:19:07;;;;;;;5.20;2.60;;;;;;;-144.99;nan;52244.28;5008049;28;20696;-61
2021/05/12 00:21:38;;;;;;;4.37;2.40;;;;;;;-144.99;nan;52285.03;5006862;28;20210;-62
2021/05/12 00:24:08;;;;;;;6.60;2.27;;;;;;;-144.99;nan;52309.50;5008733;28;20207;-61
2021/05/12 00:26:37;;;;;;;3.23;2.07;;;;;;;-144.99;nan;52285.03;5005483;28;20210;-62
2021/05/12 00:29:05;;;;;;;5.57;2.60;;;;;;;-144.99;nan;52325.81;5008222;28;20218;-60
2021/05/12 00:31:31;;;;;;;6.33;2.77;;;;;;;-144.99;nan;52283.00;5011299;28;20572;-60
2021/05/12 00:33:57;;;;;;;3.33;2.17;;;;;;;-144.99;nan;52317.66;5009801;28;20394;-59
2021/05/12 00:36:23;;;;;;;6.20;2.30;;;;;;;-144.99;nan;52311.53;5006966;28;20203;-59
2021/05/12 00:38:56;;;;;;;4.13;2.50;;;;;;;-144.99;nan;52309.50;5009329;28;20241;-60
2021/05/12 00:41:28;;;;;;;7.07;2.77;;;;;;;-144.99;nan;52280.97;5008538;28;20661;-59
2021/05/12 00:43:57;;;;;;;4.17;2.90;;;;;;;-144.99;nan;52315.59;5010985;28;20207;-60
2021/05/12 00:46:24;;;;;;;9.33;2.53;;;;;;;-144.99;nan;52338.03;5010962;28;20214;-61
2021/05/12 00:48:53;;;;;;;5.90;2.80;;;;;;;-144.99;nan;52301.34;5007548;28;20225;-60
2021/05/12 00:51:19;;;;;;;4.10;2.87;;;;;;;-144.99;nan;52289.13;5006603;28;20290;-60
2021/05/12 00:53:51;;;;;;;8.33;3.40;;;;;;;-144.99;nan;52311.53;5008785;28;20207;-60
2021/05/12 00:56:20;;;;;;;5.63;3.23;;;;;;;-144.99;nan;52297.25;5009571;28;20222;-61
2021/05/12 00:58:49;;;;;;;12.37;7.23;;;;;;;-144.99;nan;52293.19;5009786;28;20234;-61
2021/05/12 01:01:16;;;;;;;7.50;3.63;;;;;;;-144.99;nan;52256.50;5007707;28;20210;-61
2021/05/12 01:03:43;;;;;;;8.47;3.30;;;;;;;-144.99;nan;52297.25;5006026;28;20230;-60
2021/05/12 01:06:23;;;;;;;6.17;3.27;;;;;;;-144.99;nan;52313.56;5010047;28;20202;-61
2021/05/12 01:08:55;;;;;;;6.43;4.07;;;;;;;-144.99;nan;52266.69;5000777;28;20227;-62
2021/05/12 01:11:21;;;;;;;4.20;2.87;;;;;;;-144.99;nan;52252.44;5007392;28;20210;-62
2021/05/12 01:13:49;;;;;;;5.47;3.57;;;;;;;-144.99;nan;52272.81;5008558;28;20226;-62
2021/05/12 01:16:24;;;;;;;5.97;2.97;;;;;;;-144.99;nan;52280.97;5008564;28;20220;-61
2021/05/12 01:18:56;;;;;;;3.13;2.47;;;;;;;-144.99;nan;52252.44;5007190;28;20226;-61
2021/05/12 01:21:23;;;;;;;5.27;3.47;;;;;;;-144.99;nan;52258.53;5005267;28;20245;-61
2021/05/12 01:23:50;;;;;;;5.47;3.57;;;;;;;-144.99;nan;52285.03;5007978;28;20222;-59
2021/05/12 01:26:24;;;;;;;3.97;3.17;;;;;;;-144.99;nan;52283.00;5008324;28;20684;-60
2021/05/12 01:28:56;;;;;;;5.53;3.67;;;;;;;-144.99;nan;52264.66;5002051;28;20378;-61
2021/05/12 01:31:29;;;;;;;7.67;3.03;;;;;;;-144.99;nan;52295.22;5005953;28;20214;-60
2021/05/12 01:33:55;;;;;;;6.27;3.97;;;;;;;-144.99;nan;52305.41;5007257;28;20238;-60
2021/05/12 01:36:26;;;;;;;6.17;4.43;;;;;;;-144.99;nan;52252.44;5007467;28;20257;-60
2021/05/12 01:38:52;;;;;;;6.00;4.33;;;;;;;-144.99;nan;52289.13;5008554;28;20561;-59
2021/05/12 01:41:20;;;;;;;6.97;4.43;;;;;;;-144.99;nan;52280.97;5009476;28;20218;-59
2021/05/12 01:43:49;;;;;;;9.90;5.47;;;;;;;-144.99;nan;52268.72;5007103;28;20206;-60
2021/05/12 01:46:18;;;;;;;10.17;5.60;;;;;;;-144.99;nan;52278.91;5009645;28;20207;-60
2021/05/12 01:48:45;;;;;;;8.43;5.27;;;;;;;-144.99;nan;52252.44;5006595;28;20223;-59
2021/05/12 01:51:15;;;;;;;7.07;4.53;;;;;;;-144.99;nan;52285.03;5009422;28;20721;-60
2021/05/12 01:53:43;;;;;;;7.87;4.30;;;;;;;-144.99;nan;52252.44;5005085;28;20237;-60
2021/05/12 01:56:12;;;;;;;6.03;4.93;;;;;;;-144.99;nan;52309.50;5009926;28;20215;-61
2021/05/12 01:58:39;;;;;;;9.93;5.27;;;;;;;-144.99;nan;52319.69;5001261;28;20628;-60
2021/05/12 02:01:11;;;;;;;5.97;5.03;;;;;;;-144.99;nan;52264.66;5009335;28;20632;-59
2021/05/12 02:03:37;;;;;;;9.33;6.33;;;;;;;-144.99;nan;52283.00;5008930;28;20289;-59
2021/05/12 02:06:10;;;;;;;11.50;6.23;;;;;;;-144.99;nan;52289.13;5007363;28;20261;-59
2021/05/12 02:08:36;;;;;;;9.67;8.10;;;;;;;-144.99;nan;52268.72;5007606;28;20229;-61
2021/05/12 02:11:08;;;;;;;10.50;7.50;;;;;;;-144.99;nan;52256.50;5005704;28;20287;-59
2021/05/12 02:13:40;;;;;;;9.90;6.63;;;;;;;-144.99;nan;52268.72;5007948;28;20313;-59
2021/05/12 02:16:12;;;;;;;12.67;7.87;;;;;;;-144.99;nan;52299.31;5005541;28;20238;-59
2021/05/12 02:18:41;;;;;;;15.30;7.57;;;;;;;-144.99;nan;52293.19;5008593;28;20231;-58
2021/05/12 02:21:08;;;;;;;10.57;7.10;;;;;;;-144.99;nan;52323.75;5006609;28;20245;-60
2021/05/12 02:23:34;;;;;;;9.67;6.90;;;;;;;-144.99;nan;52270.78;5005751;28;20695;-59
2021/05/12 02:26:04;;;;;;;8.43;6.23;;;;;;;-144.99;nan;52254.47;5004150;28;20214;-58
2021/05/12 02:28:30;;;;;;;12.87;8.50;;;;;;;-144.99;nan;52248.34;5005096;28;20231;-60
2021/05/12 02:30:56;;;;;;;10.87;6.53;;;;;;;-144.99;nan;52285.03;5008151;28;20645;-59
2021/05/12 02:33:22;;;;;;;12.13;7.60;;;;;;;-144.99;nan;52264.66;5009051;28;20630;-59
2021/05/12 02:35:49;;;;;;;14.40;8.83;;;;;;;-144.99;nan;52289.13;5007145;28;20238;-59
2021/05/12 02:38:17;;;;;;;13.83;11.80;;;;;;;-144.99;nan;52305.41;5007631;28;20234;-58
2021/05/12 02:40:44;;;;;;;11.17;7.03;;;;;;;-144.99;nan;52280.97;5009155;28;20257;-57
2021/05/12 02:43:11;;;;;;;12.13;7.70;;;;;;;-144.99;nan;52325.81;5009429;28;20709;-58
2021/05/12 02:45:39;;;;;;;11.37;7.10;;;;;;;-144.99;nan;52276.88;5007281;28;20237;-59
2021/05/12 02:48:06;;;;;;;9.33;7.40;;;;;;;-144.99;nan;52285.03;5003575;28;20273;-60
2021/05/12 02:50:37;;;;;;;18.03;8.63;;;;;;;-144.99;nan;52305.41;5008874;28;20227;-60
2021/05/12 02:53:10;;;;;;;11.30;7.50;;;;;;;-144.99;nan;52283.00;5007489;28;20675;-58
2021/05/12 02:55:37;;;;;;;11.93;9.67;;;;;;;-144.99;nan;52291.16;5002060;28;20229;-59
2021/05/12 02:58:09;;;;;;;11.20;9.87;;;;;;;-144.99;nan;52305.41;5006668;28;20373;-58
2021/05/12 03:00:40;;;;;;;14.00;9.83;;;;;;;-144.99;nan;52268.72;5006655;28;20227;-58
2021/05/12 03:03:11;;;;;;;12.57;9.23;;;;;;;-144.99;nan;52256.50;5010788;28;20602;-60
2021/05/12 03:05:39;;;;;;;12.50;9.13;;;;;;;-144.99;nan;52297.25;5010729;28;20450;-58
2021/05/12 03:08:08;;;;;;;16.77;9.63;;;;;;;-144.99;nan;52313.56;5010929;28;20767;-58
2021/05/12 03:10:34;;;;;;;12.70;9.27;;;;;;;-144.99;nan;52321.72;5011406;28;20262;-58
2021/05/12 03:13:05;;;;;;;12.27;8.57;;;;;;;-144.99;nan;52272.81;5011740;28;20215;-59
2021/05/12 03:15:32;;;;;;;10.77;8.90;;;;;;;-144.99;nan;52264.66;5009195;28;20226;-58
2021/05/12 03:18:03;;;;;;;15.00;10.53;;;;;;;-144.99;nan;52293.19;5011466;28;20237;-58
2021/05/12 03:20:33;;;;;;;15.63;12.13;;;;;;;-144.99;nan;52283.00;5006027;28;20238;-58
2021/05/12 03:23:02;;;;;;;16.13;13.07;;;;;;;-144.99;nan;52268.72;5009271;28;20653;-58
2021/05/12 03:25:31;;;;;;;18.27;11.40;;;;;;;-144.99;nan;52289.13;5009816;28;20210;-58
2021/05/12 03:27:58;;;;;;;14.77;11.20;;;;;;;-144.99;nan;52297.25;5011422;28;20692;-59
2021/05/12 03:30:29;;;;;;;14.33;9.57;;;;;;;-144.99;nan;52272.81;5009705;28;20241;-58
2021/05/12 03:32:58;;;;;;;13.80;10.20;;;;;;;-144.99;nan;52207.59;5006180;28;20218;-58
2021/05/12 03:35:31;;;;;;;15.10;11.03;;;;;;;-144.99;nan;52309.50;5008431;28;20646;-58
2021/05/12 03:37:59;;;;;;;19.77;12.10;;;;;;;-144.99;nan;52293.19;5009868;28;20262;-58
2021/05/12 03:40:28;;;;;;;17.57;10.73;;;;;;;-144.99;nan;52264.66;5012750;28;20598;-59
2021/05/12 03:42:56;;;;;;;12.80;10.03;;;;;;;-144.99;nan;52266.69;5012090;28;20215;-60
2021/05/12 03:45:22;;;;;;;11.80;10.20;;;;;;;-144.99;nan;52264.66;5008471;28;20214;-59
2021/05/12 03:47:49;;;;;;;17.63;10.80;;;;;;;-144.99;nan;52285.03;5008816;28;20273;-59
2021/05/12 03:50:15;;;;;;;13.40;8.77;;;;;;;-144.99;nan;52283.00;5012365;28;20237;-59
2021/05/12 03:52:43;;;;;;;14.90;9.87;;;;;;;-144.99;nan;52227.97;5008521;28;20214;-59
2021/05/12 03:55:14;;;;;;;15.77;8.50;;;;;;;-144.99;nan;52272.81;5009710;28;20207;-58
2021/05/12 03:57:40;;;;;;;9.50;7.77;;;;;;;-144.99;nan;52256.50;5010109;28;20210;-58
2021/05/12 04:00:10;;;;;;;11.13;7.57;;;;;;;-144.99;nan;52256.50;5010960;28;20241;-59
2021/05/12 04:02:39;;;;;;;15.53;9.87;;;;;;;-144.99;nan;52301.34;5010572;28;20218;-59
2021/05/12 04:05:13;;;;;;;12.60;9.13;;;;;;;-144.99;nan;52280.97;5006331;28;20230;-60
2021/05/12 04:07:42;;;;;;;15.60;10.37;;;;;;;-144.99;nan;52289.13;5009164;28;20211;-60
2021/05/12 04:10:10;;;;;;;12.87;6.70;;;;;;;-144.99;nan;52278.91;5010679;28;20230;-60
2021/05/12 04:12:42;;;;;;;12.27;7.53;;;;;;;-144.99;nan;52305.41;5009525;28;20207;-60
2021/05/12 04:15:09;;;;;;;11.27;8.87;;;;;;;-144.99;nan;52252.44;5011146;28;20227;-61
2021/05/12 04:17:35;;;;;;;10.40;7.40;;;;;;;-144.99;nan;52313.56;5008188;28;20202;-60
2021/05/12 04:20:04;;;;;;;12.73;8.63;;;;;;;-144.99;nan;52262.63;5009319;28;20540;-60
2021/05/12 04:22:43;;;;;;;16.60;9.27;;;;;;;-144.99;nan;52313.56;5003362;28;20211;-61
2021/05/12 04:25:15;;;;;;;10.33;7.47;;;;;;;-144.99;nan;52260.56;5010052;28;20294;-58
2021/05/12 04:27:42;;;;;;;15.67;8.27;;;;;;;-144.99;nan;52252.44;5006993;28;20212;-58
2021/05/12 04:30:11;;;;;;;12.03;9.03;;;;;;;-144.99;nan;52278.91;5004045;28;20542;-61
2021/05/12 04:32:38;;;;;;;14.07;10.47;;;;;;;-144.99;nan;52321.72;5004303;28;20238;-59
2021/05/12 04:35:08;;;;;;;13.70;10.00;;;;;;;-144.99;nan;52311.53;5006488;28;20284;-60
2021/05/12 04:37:37;;;;;;;14.63;8.83;;;;;;;-144.99;nan;52280.97;5003649;28;20214;-60
2021/05/12 04:40:04;;;;;;;13.57;8.67;;;;;;;-144.99;nan;52297.25;5010537;28;20304;-60
2021/05/12 04:42:33;;;;;;;13.83;9.53;;;;;;;-144.99;nan;52297.25;5010370;28;20218;-62
2021/05/12 04:44:59;;;;;;;11.80;8.10;;;;;;;-144.99;nan;52252.44;5010883;28;20218;-61
2021/05/12 04:47:28;;;;;;;11.30;7.67;;;;;;;-144.99;nan;52262.63;5011101;28;20203;-61
2021/05/12 04:49:54;;;;;;;11.10;8.00;;;;;;;-144.99;nan;52252.44;5011118;28;20233;-62
2021/05/12 04:52:20;;;;;;;13.33;8.03;;;;;;;-144.99;nan;52295.22;5004195;28;20582;-58
2021/05/12 04:54:52;;;;;;;9.13;8.17;;;;;;;-144.99;nan;52325.81;5010783;28;20234;-57
2021/05/12 04:57:20;;;;;;;14.20;9.33;;;;;;;-144.99;nan;52303.38;5009954;28;20203;-61
2021/05/12 04:59:50;;;;;;;13.87;7.97;;;;;;;-144.99;nan;52293.19;5009879;28;20234;-61
2021/05/12 05:02:16;;;;;;;12.53;9.07;;;;;;;-144.99;nan;52262.63;5010129;28;20256;-61
2021/05/12 05:04:42;;;;;;;12.73;7.63;;;;;;;-144.99;nan;52285.03;5010271;28;20214;-58
2021/05/12 05:07:11;;;;;;;9.53;8.53;;;;;;;-144.99;nan;52297.25;5010275;28;20242;-59
2021/05/12 05:09:37;;;;;;;10.27;7.17;;;;;;;-144.99;nan;52293.19;5003286;28;20249;-60
2021/05/12 05:12:04;;;;;;;10.90;6.50;;;;;;;-144.99;nan;52264.66;5009736;28;20676;-59
2021/05/12 05:14:33;;;;;;;11.97;9.07;;;;;;;-144.99;nan;52262.63;5002237;28;20203;-58
2021/05/12 05:17:03;;;;;;;12.27;7.03;;;;;;;-144.99;nan;52285.03;5010192;28;20454;-59
2021/05/12 05:19:31;;;;;;;12.00;7.07;;;;;;;-144.99;nan;52317.66;5003722;28;20235;-58
2021/05/12 05:21:59;;;;;;;12.30;7.40;;;;;;;-144.99;nan;52264.66;5010608;28;20217;-58
2021/05/12 05:24:25;;;;;;;14.00;7.83;;;;;;;-144.99;nan;52305.41;5005863;28;20298;-58
2021/05/12 05:26:51;;;;;;;11.03;7.73;;;;;;;-144.99;nan;52252.44;5002490;28;20203;-58
2021/05/12 05:29:23;;;;;;;17.63;9.27;;;;;;;-144.99;nan;52252.44;5003922;28;20223;-59
2021/05/12 05:31:54;;;;;;;15.97;7.47;;;;;;;-144.99;nan;52260.56;5002035;28;20214;-61
2021/05/12 05:34:21;;;;;;;14.33;9.00;;;;;;;-144.99;nan;52317.66;5011937;28;20559;-61
2021/05/12 05:36:53;;;;;;;9.63;6.67;;;;;;;-144.99;nan;52287.06;5012012;28;20222;-60
2021/05/12 05:39:19;;;;;;;10.83;7.13;;;;;;;-144.99;nan;52256.50;5005052;28;20231;-59
2021/05/12 05:41:45;;;;;;;11.53;6.77;;;;;;;-144.99;nan;52297.25;5005646;28;20569;-60
2021/05/12 05:44:14;;;;;;;9.83;6.70;;;;;;;-144.99;nan;52266.69;5011418;28;20210;-60
2021/05/12 05:46:40;;;;;;;8.27;6.67;;;;;;;-144.99;nan;52254.47;5011606;28;20575;-60
2021/05/12 05:49:08;;;;;;;11.57;6.87;;;;;;;-144.99;nan;52240.19;5010198;28;20592;-60
2021/05/12 05:51:38;;;;;;;9.20;5.73;;;;;;;-144.99;nan;52258.53;5008896;28;20203;-59
2021/05/12 05:54:05;;;;;;;14.03;6.20;;;;;;;-144.99;nan;52203.50;5003535;28;20246;-60
2021/05/12 05:56:31;;;;;;;11.60;6.30;;;;;;;-144.99;nan;52289.13;5011191;28;20222;-60
2021/05/12 05:58:59;;;;;;;11.83;6.07;;;;;;;-144.99;nan;52244.28;5005537;28;20670;-58
2021/05/12 06:01:25;;;;;;;11.43;6.20;;;;;;;-144.99;nan;52289.13;4994915;28;20218;-61
2021/05/12 06:03:54;;;;;;;10.67;7.93;;;;;;;-144.99;nan;52244.28;5010806;28;20218;-62
2021/05/12 06:06:20;;;;;;;9.50;6.17;;;;;;;-144.99;nan;52236.13;5009680;28;20215;-59
2021/05/12 06:08:47;;;;;;;11.20;5.70;;;;;;;-144.99;nan;52244.28;5010039;28;20227;-60
2021/05/12 06:11:13;;;;;;;6.87;6.07;;;;;;;-144.99;nan;52285.03;5007979;28;20218;-58
2021/05/12 06:13:42;;;;;;;8.33;5.77;;;;;;;-144.99;nan;52252.44;5009830;28;20211;-60
2021/05/12 06:16:11;;;;;;;10.90;5.83;;;;;;;-144.99;nan;52289.13;5009400;28;20206;-60
2021/05/12 06:18:43;;;;;;;11.77;5.43;;;;;;;-144.99;nan;52240.19;5009437;28;20253;-60
2021/05/12 06:21:09;;;;;;;8.63;6.67;;;;;;;-144.99;nan;52260.56;5005782;28;20214;-60
2021/05/12 06:23:41;;;;;;;8.63;5.70;;;;;;;-144.99;nan;52268.72;5009893;28;20246;-60
2021/05/12 06:26:19;;;;;;;11.73;7.03;;;;;;;-144.99;nan;52280.97;5006649;28;20203;-60
2021/05/12 06:28:45;;;;;;;14.10;6.93;;;;;;;-144.99;nan;52276.88;5007585;28;20326;-59
2021/05/12 06:31:18;;;;;;;10.20;6.60;;;;;;;-144.99;nan;52250.38;5008529;28;20249;-59
2021/05/12 06:33:47;;;;;;;14.50;6.17;;;;;;;-144.99;nan;52280.97;5003793;28;20211;-60
2021/05/12 06:36:16;;;;;;;11.83;6.90;;;;;;;-144.99;nan;52242.22;5009645;28;20243;-60
2021/05/12 06:38:43;;;;;;;7.80;6.47;;;;;;;-144.99;nan;52264.66;5012584;28;20389;-59
2021/05/12 06:41:12;;;;;;;10.77;7.50;;;;;;;-144.99;nan;52301.34;5015280;28;20206;-61
2021/05/12 06:43:41;;;;;;;10.43;7.13;;;;;;;-144.99;nan;52252.44;5013236;28;20218;-61
2021/05/12 06:46:12;;;;;;;12.23;9.30;;;;;;;-144.99;nan;52227.97;5013055;28;20218;-61
2021/05/12 06:48:39;;;;;;;9.33;6.47;;;;;;;-144.99;nan;52246.31;5013020;28;20242;-58
2021/05/12 06:51:07;;;;;;;12.63;6.77;;;;;;;-144.99;nan;52240.19;5009998;28;20304;-59
2021/05/12 06:53:38;;;;;;;16.20;9.40;;;;;;;-144.99;nan;52256.50;4996400;28;20212;-59
2021/05/12 06:56:04;;;;;;;16.10;8.73;;;;;;;-144.99;nan;52260.56;5011207;28;20212;-59
2021/05/12 06:58:34;;;;;;;15.17;8.97;;;;;;;-144.99;nan;52287.06;5007013;28;20227;-60
2021/05/12 07:01:03;;;;;;;11.33;7.63;;;;;;;-144.99;nan;52264.66;5012254;28;20210;-60
2021/05/12 07:03:32;;;;;;;14.77;7.63;;;;;;;-144.99;nan;52248.34;5012120;28;20584;-64
2021/05/12 07:06:04;;;;;;;12.67;7.57;;;;;;;-144.99;nan;52240.19;5013038;28;20211;-63
2021/05/12 07:08:31;;;;;;;13.03;7.33;;;;;;;-144.99;nan;52285.03;5007745;28;20625;-63
2021/05/12 07:11:00;;;;;;;8.93;5.77;;;;;;;-144.99;nan;52211.66;5013094;28;20210;-62
2021/05/12 07:13:26;;;;;;;12.20;6.53;;;;;;;-144.99;nan;52244.28;5012124;28;20212;-61
2021/05/12 07:15:56;;;;;;;12.57;8.30;;;;;;;-144.99;nan;52244.28;5015507;28;20215;-61
2021/05/12 07:18:22;;;;;;;7.80;5.40;;;;;;;-144.99;nan;52217.78;5014959;28;20234;-62
2021/05/12 07:20:48;;;;;;;7.37;5.17;;;;;;;-144.99;nan;52248.34;5012950;28;20206;-63
2021/05/12 07:23:19;;;;;;;9.80;7.23;;;;;;;-144.99;nan;52236.13;5012874;28;20215;-62
2021/05/12 07:25:46;;;;;;;12.93;7.87;;;;;;;-144.99;nan;52272.81;5007063;28;20211;-61
2021/05/12 07:28:15;;;;;;;11.40;5.47;;;;;;;-144.99;nan;52260.56;5012393;28;20227;-60
2021/05/12 07:30:44;;;;;;;11.07;6.50;;;;;;;-144.99;nan;52242.22;5011062;28;20214;-61
2021/05/12 07:33:12;;;;;;;10.13;5.10;;;;;;;-144.99;nan;52221.84;5012254;28;20660;-61
2021/05/12 07:35:43;;;;;;;6.73;4.37;;;;;;;-144.99;nan;52240.19;5011566;28;20226;-61
2021/05/12 07:38:09;;;;;;;14.23;5.63;;;;;;;-144.99;nan;52260.56;5012307;28;20318;-62
2021/05/12 07:40:38;;;;;;;8.20;5.40;;;;;;;-144.99;nan;52246.31;5012285;28;20219;-61
2021/05/12 07:43:08;;;;;;;9.57;4.73;;;;;;;-144.99;nan;52219.81;5014389;28;20583;-62
2021/05/12 07:45:38;;;;;;;8.80;5.07;;;;;;;-144.99;nan;52215.75;5015454;28;20214;-61
2021/05/12 07:48:09;;;;;;;7.90;6.00;;;;;;;-144.99;nan;52227.97;5015375;28;20558;-62
2021/05/12 07:50:42;;;;;;;12.27;8.13;;;;;;;-144.99;nan;52242.22;5014352;28;20329;-61
2021/05/12 07:53:11;;;;;;;8.80;6.70;;;;;;;-144.99;nan;52272.81;5004112;28;20250;-62
2021/05/12 07:55:40;;;;;;;9.00;5.73;;;;;;;-144.99;nan;52272.81;5010667;28;20207;-61
2021/05/12 07:58:06;;;;;;;8.27;5.60;;;;;;;-144.99;nan;52254.47;5011900;28;20682;-62
2021/05/12 08:00:34;;;;;;;11.43;7.87;;;;;;;-144.99;nan;52203.50;5011305;28;20243;-62
2021/05/12 08:03:03;;;;;;;9.73;4.73;;;;;;;-144.99;nan;52199.44;5011387;28;20218;-60
2021/05/12 08:05:33;;;;;;;11.63;5.77;;;;;;;-144.99;nan;52246.31;5009487;28;20210;-63
2021/05/12 08:08:03;;;;;;;9.13;5.27;;;;;;;-144.99;nan;52244.28;5011650;28;20392;-60
2021/05/12 08:10:31;;;;;;;12.17;5.83;;;;;;;-144.99;nan;52227.97;5011269;28;20235;-60
2021/05/12 08:13:00;;;;;;;10.53;5.40;;;;;;;-144.99;nan;52280.97;5011523;28;20307;-61
2021/05/12 08:15:28;;;;;;;9.60;5.23;;;;;;;-144.99;nan;52268.72;5010251;28;20561;-62
2021/05/12 08:18:00;;;;;;;10.30;4.30;;;;;;;-144.99;nan;52250.38;5000078;28;20669;-62
2021/05/12 08:20:30;;;;;;;6.13;5.47;;;;;;;-144.99;nan;52240.19;5010102;28;20634;-62
2021/05/12 08:23:03;;;;;;;15.70;6.53;;;;;;;-144.99;nan;52179.06;5012264;28;20210;-62
2021/05/12 08:25:35;;;;;;;11.27;8.10;;;;;;;-144.99;nan;52227.97;5011338;28;20219;-63
2021/05/12 08:28:01;;;;;;;11.63;6.43;;;;;;;-144.99;nan;52215.75;5003402;28;20288;-62
2021/05/12 08:30:34;;;;;;;9.47;5.77;;;;;;;-144.99;nan;52240.19;5011197;28;20230;-60
2021/05/12 08:33:03;;;;;;;8.90;4.90;;;;;;;-144.99;nan;52236.13;5008566;28;20302;-65
2021/05/12 08:35:33;;;;;;;9.03;5.77;;;;;;;-144.99;nan;52256.50;5004245;28;20222;-63
2021/05/12 08:38:06;;;;;;;8.13;4.70;;;;;;;-144.99;nan;52262.63;5009648;28;20207;-64
2021/05/12 08:40:36;;;;;;;8.90;5.17;;;;;;;-144.99;nan;52272.81;5003508;28;20318;-64
2021/05/12 08:43:03;;;;;;;9.73;5.03;;;;;;;-144.99;nan;52244.28;5011501;28;20214;-65
2021/05/12 08:45:33;;;;;;;13.50;4.87;;;;;;;-144.99;nan;52207.59;5011471;28;20215;-69
2021/05/12 08:48:11;;;;;;;5.83;3.53;;;;;;;-144.99;nan;52264.66;5000873;28;20294;-69
2021/05/12 08:50:42;;;;;;;8.73;4.67;;;;;;;-144.99;nan;52232.03;5003953;28;20858;-67
2021/05/12 08:53:15;;;;;;;10.27;3.63;;;;;;;-144.99;nan;52264.66;5009856;28;20298;-67
2021/05/12 08:55:50;;;;;;;8.63;4.53;;;;;;;-144.99;nan;52260.56;5011445;28;20206;-67
2021/05/12 08:58:16;;;;;;;4.50;2.80;;;;;;;-144.99;nan;52225.94;5011202;28;20206;-67
2021/05/12 09:00:42;;;;;;;6.43;4.50;;;;;;;-144.99;nan;52252.44;5009720;28;20557;-67
2021/05/12 09:03:10;;;;;;;7.73;2.80;;;;;;;-144.99;nan;52227.97;5011046;28;20803;-67
2021/05/12 09:05:39;;;;;;;10.07;3.53;;;;;;;-144.99;nan;52207.59;5011785;28;20434;-67
2021/05/12 09:08:08;;;;;;;4.13;2.70;;;;;;;-144.99;nan;52215.75;5011826;28;20302;-67
2021/05/12 09:10:35;;;;;;;5.27;2.80;;;;;;;-144.99;nan;52213.69;5008933;28;20266;-65
2021/05/12 09:13:04;;;;;;;13.10;8.50;;;;;;;-144.99;nan;52179.06;5010740;28;20211;-68
2021/05/12 09:15:31;;;;;;;12.47;5.53;;;;;;;-144.99;nan;52207.59;5010151;28;20305;-67
2021/05/12 09:18:01;;;;;;;8.50;3.10;;;;;;;-144.99;nan;52256.50;5008219;28;20211;-67
2021/05/12 09:20:33;;;;;;;4.47;2.90;;;;;;;-144.99;nan;52248.34;5004107;28;20271;-67
2021/05/12 09:23:22;;;;;;;8.20;3.13;;;;;;;-144.99;nan;52227.97;5003006;28;20232;-69
2021/05/12 09:25:54;;;;;;;11.27;2.80;;;;;;;-144.99;nan;52203.50;5004199;28;20286;-69
2021/05/12 09:28:22;;;;;;;14.37;3.90;;;;;;;-144.99;nan;52207.59;5002005;28;20698;-69
2021/05/12 09:31:02;;;;;;;5.20;2.37;;;;;;;-144.99;nan;52207.59;5004966;28;20766;-68
2021/05/12 09:33:30;;;;;;;8.53;2.50;;;;;;;-144.99;nan;52219.81;5007659;28;20215;-69
2021/05/12 09:36:00;;;;;;;3.30;2.00;;;;;;;-144.99;nan;52215.75;5010738;28;20239;-67
2021/05/12 09:38:28;;;;;;;7.67;2.53;;;;;;;-144.99;nan;52207.59;5010414;28;20244;-68
2021/05/12 09:41:09;;;;;;;10.07;2.97;;;;;;;-144.99;nan;52238.16;5009866;28;20586;-69
2021/05/12 09:43:37;;;;;;;7.50;3.47;;;;;;;-144.99;nan;52240.19;5007518;28;20211;-68
2021/05/12 09:46:33;;;;;;;6.40;2.60;;;;;;;-144.99;nan;52179.06;5010321;28;20220;-68
2021/05/12 09:49:15;;;;;;;7.97;3.57;;;;;;;-144.99;nan;52211.66;5007141;28;20227;-68
2021/05/12 09:51:44;;;;;;;6.80;2.23;;;;;;;-144.99;nan;52209.63;5006105;28;20217;-68
2021/05/12 09:54:13;;;;;;;4.97;2.83;;;;;;;-144.99;nan;52211.66;5003850;28;20213;-70
2021/05/12 09:56:54;;;;;;;5.90;3.50;;;;;;;-144.99;nan;52236.13;4999239;28;20225;-67
2021/05/12 09:59:22;;;;;;;6.23;3.67;;;;;;;-144.99;nan;52183.13;5008176;28;20230;-68
2021/05/12 10:01:58;;;;;;;11.87;3.40;;;;;;;-144.99;nan;52211.66;5008867;28;20214;-68
2021/05/12 10:04:34;;;;;;;4.57;2.80;;;;;;;-144.99;nan;52223.88;5005220;28;20570;-69
2021/05/12 10:07:16;;;;;;;8.40;3.07;;;;;;;-144.99;nan;52199.44;5009784;28;20237;-69
2021/05/12 10:09:47;;;;;;;6.27;3.27;;;;;;;-144.99;nan;52232.03;5006801;28;20227;-69
2021/05/12 10:12:17;;;;;;;8.27;2.87;;;;;;;-144.99;nan;52199.44;5008027;28;20211;-68
2021/05/12 10:14:45;;;;;;;5.80;2.00;;;;;;;-144.99;nan;52238.16;5006553;28;20245;-68
2021/05/12 10:17:16;;;;;;;4.57;1.87;;;;;;;-144.99;nan;52199.44;5010546;28;20666;-68
2021/05/12 10:19:43;;;;;;;4.03;2.10;;;;;;;-144.99;nan;52238.16;5010554;28;20695;-68
2021/05/12 10:22:11;;;;;;;7.17;2.63;;;;;;;-144.99;nan;52244.28;5010850;28;20214;-68
2021/05/12 10:24:38;;;;;;;5.83;5.23;;;;;;;-144.99;nan;52250.38;5012780;28;20750;-68
2021/05/12 10:27:10;;;;;;;5.03;2.00;;;;;;;-144.99;nan;52219.81;5010437;28;20670;-68
2021/05/12 10:29:42;;;;;;;6.77;3.00;;;;;;;-144.99;nan;52244.28;5011745;28;20226;-68
2021/05/12 10:32:43;;;;;;;6.97;3.40;;;;;;;-144.99;nan;52244.28;5012682;28;20208;-69
2021/05/12 10:35:11;;;;;;;9.10;4.27;;;;;;;-144.99;nan;52230.00;5009966;28;20707;-69
2021/05/12 10:37:41;;;;;;;12.50;5.13;;;;;;;-144.99;nan;52258.53;5006016;28;20212;-69
2021/05/12 10:40:16;;;;;;;7.37;5.00;;;;;;;-144.99;nan;52223.88;5010532;28;20302;-69
2021/05/12 10:42:50;;;;;;;9.07;5.70;;;;;;;-144.99;nan;52256.50;5008397;28;20322;-69
2021/05/12 10:45:34;;;;;;;9.43;6.53;;;;;;;-144.99;nan;52242.22;5006110;28;20278;-68
2021/05/12 10:48:07;;;;;;;9.03;5.43;;;;;;;-144.99;nan;52232.03;5010067;28;20215;-71
2021/05/12 10:50:43;;;;;;;7.30;5.87;;;;;;;-144.99;nan;52187.19;4999835;28;20237;-68
2021/05/12 10:53:20;;;;;;;11.43;6.10;;;;;;;-144.99;nan;52215.75;5002750;28;20212;-68
2021/05/12 10:56:01;;;;;;;11.07;7.20;;;;;;;-144.99;nan;52195.34;5009064;28;20587;-68
2021/05/12 10:58:28;;;;;;;16.03;8.73;;;;;;;-144.99;nan;52264.66;5011824;28;20263;-67
2021/05/12 11:00:56;;;;;;;12.67;6.63;;;;;;;-144.99;nan;52234.09;5008030;28;20221;-68
2021/05/12 11:03:46;;;;;;;9.43;6.53;;;;;;;-144.99;nan;52215.75;5009220;28;20207;-68
2021/05/12 11:06:15;;;;;;;14.57;8.13;;;;;;;-144.99;nan;52240.19;5008210;28;20213;-69
2021/05/12 11:09:05;;;;;;;12.33;7.90;;;;;;;-144.99;nan;52209.63;5005811;28;20700;-69
2021/05/12 11:11:32;;;;;;;18.83;7.87;;;;;;;-144.99;nan;52211.66;5003487;28;20213;-69
2021/05/12 11:14:19;;;;;;;13.17;8.07;;;;;;;-144.99;nan;52195.34;5002269;28;20269;-69
2021/05/12 11:17:07;;;;;;;17.43;6.50;;;;;;;-144.99;nan;52191.28;5001976;28;20206;-69
2021/05/12 11:19:37;;;;;;;12.30;6.83;;;;;;;-144.99;nan;52187.19;5000628;28;20778;-69
2021/05/12 11:22:37;;;;;;;9.20;4.30;;;;;;;-144.99;nan;52148.47;5001284;28;20213;-69
2021/05/12 11:25:16;;;;;;;9.67;4.07;;;;;;;-144.99;nan;52183.13;5009300;28;20264;-68
2021/05/12 11:33:46;;;;;;;10.40;3.47;;;;;;;-144.99;nan;52227.97;4993461;22;20283;-57
2021/05/12 11:36:17;;;;;;;19.10;4.97;;;;;;;-144.99;nan;52170.91;5033075;28;20461;-59
2021/05/12 11:38:53;;;;;;;9.43;3.80;;;;;;;-144.99;nan;52227.97;5037073;22;20238;-73
2021/05/12 11:41:31;;;;;;;8.60;2.90;;;;;;;-144.99;nan;52203.50;5002847;28;20288;-76
2021/05/12 11:44:03;;;;;;;5.03;2.17;;;;;;;-144.99;nan;52150.53;5005255;22;20683;-76
2021/05/12 11:46:41;;;;;;;9.27;3.33;;;;;;;-144.99;nan;52179.06;5027349;28;20202;-82
2021/05/12 11:49:19;;;;;;;8.50;4.70;;;;;;;-144.99;nan;52130.13;5031277;28;20206;-75